Time;durP1;ratioP1;P1;durP2;ratioP2;P2;SDS_P1;SDS_P2;PMS_P1;PMS_P2;Temp;Humidity;BMP_temperature;BMP_pressure;BME280_temperature;BME280_humidity;BME280_pressure;Samples;Min_cycle;Max_cycle;Signal;HPM_P1;HPM_P2
2021/04/07 00:01:28;;;;;;;19.42;4.78;;;;;;;14.24;68.97;100662.19;5029193;28;20056;-74
2021/04/07 00:03:55;;;;;;;15.98;5.13;;;;;;;14.33;68.73;100654.22;5029888;28;20041;-74
2021/04/07 00:06:22;;;;;;;19.73;4.88;;;;;;;14.43;68.61;100649.81;5029824;28;20137;-74
2021/04/07 00:08:50;;;;;;;21.50;5.25;;;;;;;14.52;68.56;100657.75;5029420;28;20555;-74
2021/04/07 00:11:18;;;;;;;19.38;4.80;;;;;;;14.55;68.30;100647.13;5029389;28;20715;-74
2021/04/07 00:13:46;;;;;;;22.73;5.55;;;;;;;14.64;68.38;100656.81;5028979;28;20049;-74
2021/04/07 00:16:13;;;;;;;19.70;5.28;;;;;;;14.67;68.23;100660.38;5029380;28;20048;-76
2021/04/07 00:18:40;;;;;;;15.68;4.60;;;;;;;14.72;68.24;100666.56;5030589;28;20043;-74
2021/04/07 00:21:07;;;;;;;18.65;4.95;;;;;;;14.79;68.38;100662.09;5029808;28;20762;-74
2021/04/07 00:23:34;;;;;;;14.77;4.82;;;;;;;14.86;68.39;100663.84;5028294;28;20128;-74
2021/04/07 00:26:03;;;;;;;19.20;4.60;;;;;;;14.92;68.36;100663.84;5029775;28;20038;-74
2021/04/07 00:28:30;;;;;;;19.73;5.35;;;;;;;14.84;68.54;100659.41;5029372;28;20490;-74
2021/04/07 00:30:58;;;;;;;17.65;4.93;;;;;;;14.75;69.29;100655.94;5029372;28;20041;-74
2021/04/07 00:33:25;;;;;;;21.10;5.10;;;;;;;14.80;69.44;100663.88;5029824;28;20045;-74
2021/04/07 00:35:53;;;;;;;19.60;5.70;;;;;;;14.79;69.72;100650.59;5029398;28;20045;-74
2021/04/07 00:38:20;;;;;;;21.27;5.50;;;;;;;14.80;69.90;100655.91;5029306;28;20053;-74
2021/04/07 00:40:47;;;;;;;27.33;7.07;;;;;;;14.85;69.89;100651.44;5029993;28;20042;-74
2021/04/07 00:43:15;;;;;;;25.52;7.13;;;;;;;14.89;69.67;100657.66;5029466;28;20043;-74
2021/04/07 00:45:44;;;;;;;19.00;5.07;;;;;;;14.84;69.95;100665.63;5027771;28;20048;-75
2021/04/07 00:48:13;;;;;;;24.58;5.07;;;;;;;14.90;69.99;100670.91;5028878;28;20125;-74
2021/04/07 00:50:40;;;;;;;22.50;5.90;;;;;;;14.91;69.90;100664.72;5029012;28;20485;-74
2021/04/07 00:53:07;;;;;;;26.05;5.25;;;;;;;14.88;69.99;100655.88;5029252;28;20038;-74
2021/04/07 00:55:37;;;;;;;15.70;5.65;;;;;;;14.98;69.75;100657.59;5027731;28;20120;-74
2021/04/07 00:58:06;;;;;;;19.15;4.53;;;;;;;14.95;69.45;100671.81;5029175;28;20049;-74
2021/04/07 01:00:34;;;;;;;18.58;5.32;;;;;;;14.92;69.59;100671.81;5029037;28;20053;-73
2021/04/07 01:03:03;;;;;;;15.65;4.93;;;;;;;14.99;69.54;100676.22;5029392;28;20051;-74
2021/04/07 01:05:30;;;;;;;22.55;4.90;;;;;;;14.96;69.79;100681.56;5029008;28;20053;-75
2021/04/07 01:07:58;;;;;;;23.15;5.88;;;;;;;15.00;69.72;100672.66;5028858;28;20033;-75
2021/04/07 01:10:26;;;;;;;21.02;5.10;;;;;;;15.06;69.64;100671.75;5028074;28;20053;-74
2021/04/07 01:12:53;;;;;;;21.85;6.40;;;;;;;15.12;69.50;100675.28;5028559;28;20123;-75
2021/04/07 01:15:20;;;;;;;21.55;4.88;;;;;;;15.17;69.22;100667.25;5028875;28;20041;-74
2021/04/07 01:17:48;;;;;;;18.35;5.75;;;;;;;15.17;69.03;100659.28;5029385;28;20404;-75
2021/04/07 01:20:17;;;;;;;25.48;7.00;;;;;;;15.15;68.90;100669.06;5028670;28;20044;-74
2021/04/07 01:22:48;;;;;;;20.85;4.45;;;;;;;15.04;68.90;100669.09;5028400;28;20045;-74
2021/04/07 01:25:16;;;;;;;18.58;4.80;;;;;;;15.00;68.86;100677.09;5028461;28;20091;-74
2021/04/07 01:27:44;;;;;;;22.00;4.88;;;;;;;14.87;69.10;100688.66;5028203;28;20044;-74
2021/04/07 01:30:14;;;;;;;18.33;5.47;;;;;;;14.79;69.50;100687.78;5029107;28;20038;-74
2021/04/07 01:32:41;;;;;;;23.45;6.45;;;;;;;14.84;69.60;100684.22;5028701;28;20096;-74
2021/04/07 01:35:11;;;;;;;19.65;5.28;;;;;;;14.87;69.73;100678.91;5028183;28;20037;-74
2021/04/07 01:37:39;;;;;;;16.83;5.47;;;;;;;14.86;69.56;100674.47;5027932;28;20120;-75
2021/04/07 01:40:09;;;;;;;16.27;4.93;;;;;;;14.85;69.53;100686.00;5027991;28;20037;-73
2021/04/07 01:42:38;;;;;;;25.90;4.97;;;;;;;14.83;69.39;100690.47;5028446;28;20049;-74
2021/04/07 01:45:07;;;;;;;20.25;5.07;;;;;;;14.81;69.33;100692.22;5027485;28;20045;-74
2021/04/07 01:47:34;;;;;;;26.15;5.65;;;;;;;14.79;69.42;100691.34;5023387;28;20048;-74
2021/04/07 01:50:04;;;;;;;23.30;5.80;;;;;;;14.80;69.23;100682.47;5009403;28;20501;-74
2021/04/07 01:52:31;;;;;;;15.77;4.90;;;;;;;14.78;69.08;100686.91;5027588;28;20048;-75
2021/04/07 01:54:58;;;;;;;18.13;4.78;;;;;;;14.75;69.00;100684.28;5027871;28;20037;-74
2021/04/07 01:57:26;;;;;;;18.92;4.78;;;;;;;14.69;68.99;100684.28;5028912;28;20095;-74
2021/04/07 01:59:54;;;;;;;27.15;5.07;;;;;;;14.60;69.15;100686.97;5028952;28;20063;-74
2021/04/07 02:02:20;;;;;;;17.50;4.53;;;;;;;14.54;69.18;100685.22;5027110;28;20374;-74
2021/04/07 02:04:47;;;;;;;22.42;4.90;;;;;;;14.51;69.18;100694.94;5028437;28;20041;-75
2021/04/07 02:07:17;;;;;;;15.82;4.50;;;;;;;14.56;69.05;100698.50;5028108;28;20120;-74
2021/04/07 02:09:44;;;;;;;20.58;5.60;;;;;;;14.55;69.00;100697.59;5029052;28;20030;-74
2021/04/07 02:12:12;;;;;;;22.05;4.57;;;;;;;14.51;69.09;100702.91;5033243;28;20041;-73
2021/04/07 02:14:39;;;;;;;17.33;4.25;;;;;;;14.47;69.20;100696.72;5032113;28;20128;-74
2021/04/07 02:17:07;;;;;;;16.45;5.20;;;;;;;14.46;69.25;100700.25;5027076;28;20068;-74
2021/04/07 02:19:36;;;;;;;31.92;5.82;;;;;;;14.47;69.29;100703.81;5019414;28;20091;-74
2021/04/07 02:22:06;;;;;;;34.58;5.18;;;;;;;14.49;69.27;100707.34;5031397;28;20045;-74
2021/04/07 02:24:34;;;;;;;17.40;5.25;;;;;;;14.51;69.32;100719.72;5031604;28;20041;-74
2021/04/07 02:27:03;;;;;;;22.52;4.88;;;;;;;14.55;69.18;100720.63;5031250;28;20096;-74
2021/04/07 02:29:30;;;;;;;21.60;4.65;;;;;;;14.52;69.35;100724.16;5032158;28;20053;-74
2021/04/07 02:31:57;;;;;;;23.85;6.70;;;;;;;14.55;69.61;100725.94;5031459;28;20064;-74
2021/04/07 02:34:25;;;;;;;21.35;6.28;;;;;;;14.64;69.42;100725.91;5032068;28;20053;-74
2021/04/07 02:36:52;;;;;;;19.58;4.55;;;;;;;14.67;69.20;100723.25;5031621;28;20049;-74
2021/04/07 02:39:18;;;;;;;17.17;5.15;;;;;;;14.69;69.11;100730.34;5031552;28;20037;-74
2021/04/07 02:41:45;;;;;;;17.02;6.22;;;;;;;14.72;69.15;100732.97;5031410;28;20033;-74
2021/04/07 02:44:12;;;;;;;19.63;4.30;;;;;;;14.77;69.01;100740.94;5031046;28;20033;-75
2021/04/07 02:46:39;;;;;;;19.15;5.25;;;;;;;14.77;68.86;100736.50;5047121;28;20132;-74
2021/04/07 02:49:06;;;;;;;16.35;4.68;;;;;;;14.71;68.86;100735.63;5031303;28;20046;-74
2021/04/07 02:51:34;;;;;;;19.00;4.10;;;;;;;14.66;68.85;100742.75;5031889;28;20057;-74
2021/04/07 02:54:02;;;;;;;16.13;5.07;;;;;;;14.58;68.81;100736.53;5031748;28;20041;-75
2021/04/07 02:56:30;;;;;;;16.02;4.85;;;;;;;14.56;68.94;100741.00;5011757;28;20125;-75
2021/04/07 02:58:57;;;;;;;20.23;4.60;;;;;;;14.52;68.89;100741.88;5009699;28;20042;-74
2021/04/07 03:01:24;;;;;;;17.10;4.78;;;;;;;14.51;68.84;100734.78;5011812;28;20057;-74
2021/04/07 03:03:51;;;;;;;17.95;5.45;;;;;;;14.50;68.84;100736.59;5011976;28;20041;-74
2021/04/07 03:06:19;;;;;;;15.13;4.90;;;;;;;14.43;68.74;100728.63;5010918;28;20042;-74
2021/04/07 03:08:47;;;;;;;27.27;5.75;;;;;;;14.35;68.79;100729.47;5011884;28;20553;-74
2021/04/07 03:11:14;;;;;;;15.73;4.50;;;;;;;14.28;68.82;100732.13;5011265;28;20045;-74
2021/04/07 03:13:41;;;;;;;22.08;5.85;;;;;;;14.23;68.89;100737.44;5010898;28;20042;-74
2021/04/07 03:16:08;;;;;;;18.52;5.28;;;;;;;14.26;68.81;100729.44;5011578;28;20505;-74
2021/04/07 03:18:35;;;;;;;11.90;3.85;;;;;;;14.29;68.83;100739.19;5010022;28;20493;-74
2021/04/07 03:21:02;;;;;;;14.82;4.78;;;;;;;14.33;68.57;100739.19;5011293;28;20076;-74
2021/04/07 03:23:30;;;;;;;18.50;5.40;;;;;;;14.36;68.60;100741.88;5011765;28;20129;-74
2021/04/07 03:25:58;;;;;;;17.33;4.70;;;;;;;14.32;68.60;100740.06;5009933;28;20042;-74
2021/04/07 03:28:26;;;;;;;18.85;5.22;;;;;;;14.25;68.71;100743.59;5006945;28;20046;-74
2021/04/07 03:30:53;;;;;;;12.55;4.50;;;;;;;14.27;68.50;100759.56;5010203;28;20068;-74
2021/04/07 03:33:21;;;;;;;20.50;5.35;;;;;;;14.23;67.93;100752.47;5010472;28;20045;-74
2021/04/07 03:35:49;;;;;;;13.90;5.43;;;;;;;14.17;68.10;100756.03;5009842;28;20116;-74
2021/04/07 03:38:17;;;;;;;20.98;4.75;;;;;;;14.16;68.06;100770.19;5010416;28;20084;-75
2021/04/07 03:40:45;;;;;;;15.88;4.45;;;;;;;14.19;68.10;100779.88;5010438;28;20482;-74
2021/04/07 03:43:15;;;;;;;15.50;4.25;;;;;;;14.20;68.10;100781.66;5010197;28;20577;-74
2021/04/07 03:45:42;;;;;;;15.63;5.03;;;;;;;14.22;68.29;100786.09;5007700;28;20565;-74
2021/04/07 03:48:10;;;;;;;20.42;4.70;;;;;;;14.21;68.36;100784.34;5010575;28;20048;-74
2021/04/07 03:50:38;;;;;;;14.00;4.47;;;;;;;14.23;68.32;100793.19;5009956;28;20041;-74
2021/04/07 03:53:05;;;;;;;14.93;4.60;;;;;;;14.25;68.19;100802.03;5009990;28;20045;-74
2021/04/07 03:55:32;;;;;;;19.35;5.30;;;;;;;14.23;68.00;100798.50;5011116;28;20464;-75
2021/04/07 03:57:59;;;;;;;20.77;6.53;;;;;;;14.20;68.19;100798.50;5008101;28;20081;-74
2021/04/07 04:00:28;;;;;;;17.25;4.10;;;;;;;14.21;68.06;100802.03;5009741;28;20038;-74
2021/04/07 04:02:55;;;;;;;18.42;3.97;;;;;;;14.21;68.19;100807.34;5008643;28;20124;-74
2021/04/07 04:05:22;;;;;;;21.10;5.53;;;;;;;14.26;68.27;100813.53;5010547;28;20041;-74
2021/04/07 04:07:49;;;;;;;15.82;4.43;;;;;;;14.31;68.21;100815.31;5010323;28;20046;-74
2021/04/07 04:10:16;;;;;;;13.77;4.55;;;;;;;14.38;68.23;100818.88;5009125;28;20038;-73
2021/04/07 04:12:43;;;;;;;16.50;4.93;;;;;;;14.42;68.10;100825.09;5010537;28;20049;-74
2021/04/07 04:15:12;;;;;;;16.73;3.95;;;;;;;14.45;68.19;100830.41;5009958;28;20700;-74
2021/04/07 04:17:41;;;;;;;16.60;4.20;;;;;;;14.49;68.16;100841.06;5009682;28;20037;-74
2021/04/07 04:20:09;;;;;;;17.75;4.78;;;;;;;14.52;68.18;100834.84;5008905;28;20501;-74
2021/04/07 04:22:36;;;;;;;18.30;4.88;;;;;;;14.53;68.11;100844.59;5010497;28;20678;-73
2021/04/07 04:25:04;;;;;;;13.50;4.53;;;;;;;14.56;68.06;100839.28;5010336;28;20046;-74
2021/04/07 04:27:31;;;;;;;15.90;4.80;;;;;;;14.56;68.00;100847.25;5009817;28;20108;-76
2021/04/07 04:29:58;;;;;;;17.80;4.35;;;;;;;14.59;68.10;100849.91;5006408;28;20042;-75
2021/04/07 04:32:24;;;;;;;16.75;5.50;;;;;;;14.61;68.00;100861.44;5009653;28;20045;-74
2021/04/07 04:34:53;;;;;;;18.98;4.45;;;;;;;14.62;67.92;100855.22;5009136;28;20038;-74
2021/04/07 04:37:20;;;;;;;16.65;4.45;;;;;;;14.64;67.99;100858.75;5009749;28;20048;-75
2021/04/07 04:39:47;;;;;;;11.45;4.47;;;;;;;14.70;68.03;100864.94;5009874;28;20167;-74
2021/04/07 04:42:13;;;;;;;19.95;5.00;;;;;;;14.76;68.08;100869.41;5009911;28;20046;-74
2021/04/07 04:44:40;;;;;;;17.88;4.25;;;;;;;14.82;68.41;100874.72;5008471;28;20533;-74
2021/04/07 04:47:07;;;;;;;22.45;5.18;;;;;;;14.87;68.44;100864.97;5009352;28;20042;-75
2021/04/07 04:49:34;;;;;;;16.30;4.30;;;;;;;14.95;68.46;100867.63;5009913;28;20046;-74
2021/04/07 04:52:02;;;;;;;17.98;5.13;;;;;;;15.01;68.75;100871.19;5008239;28;20551;-74
2021/04/07 04:54:29;;;;;;;20.60;4.90;;;;;;;15.01;69.00;100871.19;5028758;28;20048;-74
2021/04/07 04:56:56;;;;;;;13.55;4.35;;;;;;;14.98;69.21;100880.91;5029560;28;20124;-74
2021/04/07 04:59:23;;;;;;;13.00;3.97;;;;;;;14.94;69.18;100880.03;5029628;28;20111;-75
2021/04/07 05:01:50;;;;;;;12.95;4.38;;;;;;;14.96;69.01;100888.03;5029103;28;20114;-74
2021/04/07 05:04:18;;;;;;;17.50;4.70;;;;;;;14.96;68.93;100882.69;5027528;28;20034;-74
2021/04/07 05:06:45;;;;;;;17.23;4.85;;;;;;;14.92;69.42;100888.88;5028176;28;20045;-74
2021/04/07 05:09:13;;;;;;;12.85;4.75;;;;;;;14.91;69.85;100888.00;5029375;28;20061;-74
2021/04/07 05:11:40;;;;;;;17.73;5.30;;;;;;;15.04;70.06;100891.53;5027781;28;20412;-74
2021/04/07 05:14:07;;;;;;;20.23;5.25;;;;;;;15.33;70.16;100895.06;5028725;28;20033;-75
2021/04/07 05:16:35;;;;;;;16.98;4.22;;;;;;;15.53;69.92;100895.06;5029218;28;20102;-74
2021/04/07 05:19:02;;;;;;;14.57;4.60;;;;;;;15.68;69.66;100889.69;5028705;28;20045;-74
2021/04/07 05:21:29;;;;;;;12.60;4.30;;;;;;;15.98;69.71;100886.03;5027378;28;20041;-74
2021/04/07 05:23:56;;;;;;;10.73;4.22;;;;;;;16.33;70.00;100891.16;5011867;28;20070;-76
2021/04/07 05:26:25;;;;;;;14.68;4.35;;;;;;;16.74;69.74;100897.13;5016870;28;20034;-75
2021/04/07 05:28:52;;;;;;;20.38;5.15;;;;;;;17.12;69.40;100896.84;5009230;28;20137;-75
2021/04/07 05:31:19;;;;;;;14.77;4.85;;;;;;;17.43;68.18;100891.19;5006707;28;20669;-77
2021/04/07 05:33:47;;;;;;;19.25;5.00;;;;;;;17.79;67.65;100897.91;5000441;28;20049;-75
2021/04/07 05:36:15;;;;;;;19.25;5.43;;;;;;;18.18;66.85;100902.75;4994400;28;20391;-75
2021/04/07 05:38:43;;;;;;;29.00;10.25;;;;;;;18.58;65.99;100913.81;5007715;28;20485;-75
2021/04/07 05:41:11;;;;;;;29.42;10.57;;;;;;;18.93;65.06;100909.72;5005026;28;20057;-75
2021/04/07 05:43:40;;;;;;;26.45;11.55;;;;;;;19.27;64.90;100913.59;4992360;28;20172;-75
2021/04/07 05:46:08;;;;;;;33.38;12.38;;;;;;;19.48;63.33;100915.06;4996459;28;20570;-76
2021/04/07 05:48:36;;;;;;;26.08;9.20;;;;;;;19.41;62.82;100919.59;5010301;28;20061;-75
2021/04/07 05:51:04;;;;;;;28.23;7.45;;;;;;;19.32;62.69;100918.88;4995332;28;20049;-76
2021/04/07 05:53:31;;;;;;;15.05;4.45;;;;;;;19.18;62.14;100923.56;5028142;28;20136;-75
2021/04/07 05:55:59;;;;;;;16.20;5.55;;;;;;;19.12;61.84;100927.25;5019824;28;20037;-75
2021/04/07 05:58:27;;;;;;;23.25;5.68;;;;;;;19.07;61.73;100934.47;5028403;28;20107;-76
2021/04/07 06:00:56;;;;;;;25.15;8.52;;;;;;;19.11;61.70;100936.16;5029382;28;20050;-75
2021/04/07 06:03:23;;;;;;;15.75;6.47;;;;;;;19.13;61.18;100938.84;5025498;28;20437;-75
2021/04/07 06:05:51;;;;;;;17.00;6.22;;;;;;;19.14;60.93;100940.59;5031907;28;20144;-75
2021/04/07 06:08:19;;;;;;;15.32;5.18;;;;;;;19.16;61.03;100936.13;5039484;28;20593;-75
2021/04/07 06:10:48;;;;;;;10.18;3.42;;;;;;;19.18;60.85;100944.97;5042487;28;20448;-77
2021/04/07 06:13:17;;;;;;;12.90;4.03;;;;;;;19.34;60.40;100935.78;5037572;28;20116;-76
2021/04/07 06:15:45;;;;;;;14.80;3.85;;;;;;;19.64;60.48;100940.63;5032098;28;20037;-75
2021/04/07 06:18:13;;;;;;;12.02;3.50;;;;;;;20.10;59.84;100937.03;5032476;28;20049;-75
2021/04/07 06:20:43;;;;;;;21.13;6.35;;;;;;;20.34;59.38;100941.03;5032487;28;20153;-75
2021/04/07 06:23:11;;;;;;;18.38;5.35;;;;;;;20.59;58.40;100943.16;5030295;28;20108;-76
2021/04/07 06:25:39;;;;;;;14.02;6.88;;;;;;;20.92;57.05;100944.16;5026166;28;20049;-76
2021/04/07 06:28:07;;;;;;;18.20;6.88;;;;;;;21.22;54.69;100947.03;5026983;28;20040;-76
2021/04/07 06:30:41;;;;;;;26.13;11.15;;;;;;;21.45;53.99;100945.53;5027927;28;20457;-75
2021/04/07 06:33:19;;;;;;;28.55;12.95;;;;;;;21.62;51.92;100954.94;5027227;28;20037;-75
2021/04/07 06:35:48;;;;;;;20.58;9.98;;;;;;;21.72;52.26;100960.06;5036648;28;20052;-76
2021/04/07 06:38:16;;;;;;;23.17;8.65;;;;;;;21.84;51.79;100959.72;5034831;28;20037;-76
2021/04/07 06:40:43;;;;;;;13.77;4.00;;;;;;;22.03;50.92;100962.78;5039395;28;20397;-75
2021/04/07 06:43:11;;;;;;;11.93;4.22;;;;;;;22.01;50.33;100958.38;5031392;28;20045;-77
2021/04/07 06:45:40;;;;;;;18.33;4.30;;;;;;;22.20;49.00;100960.50;5031789;28;20129;-76
2021/04/07 06:48:08;;;;;;;14.02;4.30;;;;;;;22.30;47.45;100962.94;5031486;28;20120;-76
2021/04/07 06:50:37;;;;;;;13.88;4.45;;;;;;;22.31;46.54;100962.00;5030281;28;20505;-75
2021/04/07 06:53:07;;;;;;;12.65;3.50;;;;;;;22.34;45.52;100959.22;5031868;28;20046;-76
2021/04/07 06:55:35;;;;;;;12.98;4.18;;;;;;;22.41;45.47;100958.97;5011611;28;20073;-75
2021/04/07 06:58:02;;;;;;;19.50;4.70;;;;;;;22.58;44.65;100955.75;5011352;28;20042;-76
2021/04/07 07:00:30;;;;;;;14.00;4.75;;;;;;;22.77;44.50;100958.84;5030222;28;20049;-77
2021/04/07 07:03:02;;;;;;;13.65;5.18;;;;;;;22.96;43.84;100966.28;5031512;28;20033;-77
2021/04/07 07:05:30;;;;;;;16.90;4.43;;;;;;;23.01;43.79;100958.91;5031737;28;20049;-76
2021/04/07 07:08:03;;;;;;;12.93;4.10;;;;;;;23.15;43.90;100962.97;5031555;28;20042;-76
2021/04/07 07:10:38;;;;;;;24.38;5.68;;;;;;;23.33;43.65;100957.84;5031261;28;20076;-76
2021/04/07 07:13:06;;;;;;;12.68;3.85;;;;;;;23.45;43.50;100959.25;5031216;28;20048;-76
2021/04/07 07:15:34;;;;;;;9.02;2.65;;;;;;;23.57;41.98;100957.97;5031335;28;20041;-77
2021/04/07 07:18:01;;;;;;;10.88;2.70;;;;;;;23.75;40.79;100960.91;5036362;28;20093;-77
2021/04/07 07:20:31;;;;;;;9.18;3.30;;;;;;;23.84;40.46;100959.69;5031342;28;20045;-77
2021/04/07 07:22:58;;;;;;;12.85;3.53;;;;;;;23.74;39.62;100972.63;5031051;28;20037;-77
2021/04/07 07:25:26;;;;;;;13.05;3.20;;;;;;;23.76;39.63;100973.44;5030578;28;20053;-75
2021/04/07 07:27:59;;;;;;;14.55;4.22;;;;;;;23.95;39.42;100965.59;5030594;28;20056;-76
2021/04/07 07:30:42;;;;;;;11.63;3.63;;;;;;;24.08;39.09;100975.00;5029687;28;20401;-77
2021/04/07 07:33:19;;;;;;;12.98;2.72;;;;;;;24.16;38.62;100977.38;5009862;28;20512;-78
2021/04/07 07:35:49;;;;;;;9.68;2.88;;;;;;;24.29;38.15;100964.34;5008300;28;20092;-77
2021/04/07 07:38:24;;;;;;;9.57;3.55;;;;;;;24.26;37.58;100965.38;5011625;28;20030;-77
2021/04/07 07:41:01;;;;;;;12.93;5.13;;;;;;;24.38;37.34;100967.59;5011142;28;20038;-78
2021/04/07 07:43:29;;;;;;;12.05;3.42;;;;;;;24.45;37.63;100969.13;5009707;28;20176;-78
2021/04/07 07:45:56;;;;;;;11.77;4.03;;;;;;;24.53;37.35;100966.13;5010544;28;20046;-78
2021/04/07 07:48:32;;;;;;;13.60;3.25;;;;;;;24.38;37.19;100973.00;5010972;28;20521;-78
2021/04/07 07:50:59;;;;;;;11.27;4.00;;;;;;;24.36;37.42;100971.28;5010427;28;20498;-78
2021/04/07 07:53:26;;;;;;;15.82;5.22;;;;;;;24.44;37.02;100970.06;5010263;28;20117;-78
2021/04/07 07:55:55;;;;;;;15.18;4.30;;;;;;;24.51;37.46;100971.59;5011026;28;20038;-77
2021/04/07 07:58:27;;;;;;;13.10;4.22;;;;;;;24.52;37.46;100976.06;5010708;28;20042;-77
2021/04/07 08:01:05;;;;;;;12.10;3.95;;;;;;;24.78;37.44;100972.34;5010640;28;20041;-76
2021/04/07 08:03:32;;;;;;;18.10;5.10;;;;;;;24.91;37.18;100975.47;5014789;28;20113;-76
2021/04/07 08:06:01;;;;;;;12.82;3.95;;;;;;;25.13;36.49;100979.06;5010928;28;20125;-77
2021/04/07 08:08:28;;;;;;;13.48;3.85;;;;;;;25.18;35.72;100977.03;5009673;28;20061;-77
2021/04/07 08:10:56;;;;;;;17.15;4.95;;;;;;;25.29;35.55;100982.00;5010758;28;20099;-77
2021/04/07 08:13:30;;;;;;;13.38;4.60;;;;;;;25.28;36.05;100975.69;5010471;28;20117;-77
2021/04/07 08:15:57;;;;;;;;;;;;;;;25.35;36.36;100982.63;5010854;28;20038;-78
2021/04/07 08:18:25;;;;;;;12.00;3.55;;;;;;;25.07;36.00;100971.22;5010375;28;20289;-78
2021/04/07 08:20:52;;;;;;;10.20;4.35;;;;;;;24.89;35.73;100977.28;5009647;28;20038;-79
2021/04/07 08:23:22;;;;;;;13.10;4.35;;;;;;;24.96;36.00;100981.53;5010354;28;20038;-77
2021/04/07 08:25:54;;;;;;;10.65;4.07;;;;;;;25.24;35.40;100974.09;5010492;28;20641;-78
2021/04/07 08:28:21;;;;;;;14.57;4.13;;;;;;;25.35;35.28;100979.03;5008462;28;20434;-79
2021/04/07 08:30:50;;;;;;;9.43;3.13;;;;;;;25.33;34.00;100981.81;5010374;28;20406;-78
2021/04/07 08:33:19;;;;;;;9.60;3.55;;;;;;;25.51;34.08;100980.16;5010641;28;20041;-79
2021/04/07 08:35:46;;;;;;;9.07;3.80;;;;;;;25.73;33.72;100982.84;5009079;28;20560;-79
2021/04/07 08:38:13;;;;;;;10.05;2.85;;;;;;;25.80;33.18;100978.91;5009978;28;20052;-78
2021/04/07 08:40:43;;;;;;;12.32;3.33;;;;;;;25.93;33.43;100981.97;5010378;28;20504;-77
2021/04/07 08:43:12;;;;;;;16.65;4.03;;;;;;;26.15;33.73;100986.34;5009568;28;20034;-78
2021/04/07 08:45:47;;;;;;;13.32;5.25;;;;;;;26.27;34.78;100987.66;5009976;28;20048;-79
2021/04/07 08:48:21;;;;;;;15.25;5.30;;;;;;;26.26;36.20;100985.00;5009824;28;20038;-79
2021/04/07 08:50:49;;;;;;;16.02;4.97;;;;;;;26.42;36.07;100988.78;5009711;28;20449;-79
2021/04/07 08:53:18;;;;;;;13.32;4.45;;;;;;;26.58;36.35;100997.97;5009575;28;20044;-79
2021/04/07 08:55:54;;;;;;;12.05;4.60;;;;;;;26.88;36.46;101001.91;5009719;28;20823;-79
2021/04/07 08:58:26;;;;;;;11.77;3.80;;;;;;;27.17;36.64;101003.25;5009685;28;20469;-79
2021/04/07 09:00:55;;;;;;;17.95;5.38;;;;;;;27.19;35.99;101008.56;5009695;28;20497;-79
2021/04/07 09:03:25;;;;;;;13.82;4.75;;;;;;;27.29;35.81;101010.78;5008331;28;20033;-78
2021/04/07 09:05:52;;;;;;;17.33;6.20;;;;;;;27.31;36.37;101013.38;5009913;28;20046;-78
2021/04/07 09:08:22;;;;;;;17.65;5.57;;;;;;;27.13;36.31;100984.47;5009210;28;20034;-78
2021/04/07 09:10:51;;;;;;;17.13;4.70;;;;;;;26.92;36.39;100997.25;5009492;28;20120;-78
2021/04/07 09:13:21;;;;;;;15.63;4.57;;;;;;;26.89;36.31;100997.41;5009504;28;20053;-77
2021/04/07 09:15:51;;;;;;;16.77;4.22;;;;;;;26.98;36.49;101005.94;5009719;28;20049;-78
2021/04/07 09:18:19;;;;;;;13.27;4.05;;;;;;;26.98;36.26;101011.38;5008880;28;20072;-76
2021/04/07 09:20:53;;;;;;;13.35;3.67;;;;;;;26.88;36.20;101010.03;5009816;28;20046;-78
2021/04/07 09:23:25;;;;;;;12.13;3.67;;;;;;;26.76;36.40;101013.34;5007800;28;20038;-76
2021/04/07 09:25:55;;;;;;;12.30;4.28;;;;;;;26.71;37.04;101009.97;5009368;28;20482;-77
2021/04/07 09:28:37;;;;;;;12.45;3.92;;;;;;;26.78;36.93;101010.56;5009339;28;20045;-78
2021/04/07 09:31:10;;;;;;;12.55;3.60;;;;;;;26.69;36.62;101003.75;5009275;28;20056;-77
2021/04/07 09:33:38;;;;;;;12.13;4.10;;;;;;;26.65;36.47;101003.97;5008962;28;20438;-78
2021/04/07 09:36:08;;;;;;;22.63;5.90;;;;;;;26.79;36.90;101010.47;5008831;28;20121;-77
2021/04/07 09:38:38;;;;;;;19.75;6.70;;;;;;;26.95;37.02;101005.22;5024441;28;20045;-78
2021/04/07 09:41:08;;;;;;;15.35;3.90;;;;;;;27.02;36.42;101005.81;5009005;28;20037;-76
2021/04/07 09:43:35;;;;;;;18.13;4.00;;;;;;;27.02;36.72;101014.84;5009356;28;20486;-78
2021/04/07 09:46:02;;;;;;;15.00;5.22;;;;;;;26.87;36.31;101005.56;5009167;28;20041;-78
2021/04/07 09:48:47;;;;;;;15.73;4.55;;;;;;;26.58;36.44;101006.09;5009046;28;20506;-78
2021/04/07 09:51:27;;;;;;;10.15;3.85;;;;;;;26.34;36.92;101007.19;5028911;28;20038;-79
2021/04/07 09:53:56;;;;;;;12.52;4.68;;;;;;;26.22;37.15;101008.59;5028544;28;20042;-78
2021/04/07 09:56:23;;;;;;;12.98;4.55;;;;;;;26.16;37.22;101009.75;5029034;28;20033;-77
2021/04/07 09:58:51;;;;;;;12.70;3.88;;;;;;;26.00;37.08;100995.16;5022046;28;20040;-76
2021/04/07 10:01:20;;;;;;;17.10;5.07;;;;;;;25.95;38.10;101002.59;5006922;28;20034;-77
2021/04/07 10:03:51;;;;;;;18.92;5.05;;;;;;;26.01;37.37;101001.44;5006791;28;20061;-78
2021/04/07 10:06:20;;;;;;;14.70;3.80;;;;;;;25.99;37.33;101003.34;5008752;28;20045;-76
2021/04/07 10:08:57;;;;;;;14.38;4.05;;;;;;;26.13;37.35;101018.00;5008386;28;20134;-75
2021/04/07 10:11:25;;;;;;;14.52;4.75;;;;;;;26.23;37.13;101015.78;5007868;28;20053;-74
2021/04/07 10:13:51;;;;;;;15.93;6.10;;;;;;;26.24;36.89;101024.78;5008614;28;20076;-75
2021/04/07 10:16:18;;;;;;;16.33;4.45;;;;;;;26.41;37.49;101020.38;5008244;28;20541;-76
2021/04/07 10:18:45;;;;;;;18.58;4.75;;;;;;;26.80;37.44;101020.34;5008639;28;20462;-75
2021/04/07 10:21:15;;;;;;;14.80;5.97;;;;;;;27.11;37.13;101025.22;5007493;28;20379;-76
2021/04/07 10:23:42;;;;;;;13.57;4.32;;;;;;;27.22;36.18;101028.28;5018372;28;20033;-76
2021/04/07 10:26:10;;;;;;;11.18;3.78;;;;;;;27.25;35.91;101028.13;5011370;28;20125;-76
2021/04/07 10:28:37;;;;;;;11.88;3.80;;;;;;;27.13;35.83;101028.72;5008575;28;20121;-76
2021/04/07 10:31:12;;;;;;;10.93;3.67;;;;;;;26.96;36.71;101020.56;5010703;28;20378;-78
2021/04/07 10:33:39;;;;;;;11.40;2.90;;;;;;;26.73;36.58;101010.75;5011782;28;20045;-76
2021/04/07 10:36:06;;;;;;;14.00;3.67;;;;;;;26.46;36.85;101017.47;5011798;28;20624;-76
2021/04/07 10:38:35;;;;;;;11.52;2.75;;;;;;;26.48;36.75;101011.03;5011922;28;20498;-76
2021/04/07 10:41:04;;;;;;;9.07;4.43;;;;;;;26.61;36.85;101019.47;5012723;28;20241;-77
2021/04/07 10:43:34;;;;;;;8.55;2.88;;;;;;;26.72;36.76;101017.13;5015585;28;20125;-76
2021/04/07 10:46:03;;;;;;;13.13;3.55;;;;;;;26.83;37.09;101001.25;5011907;28;20049;-76
2021/04/07 10:48:31;;;;;;;11.75;4.28;;;;;;;26.72;36.89;101009.00;5014586;28;20058;-75
2021/04/07 10:50:59;;;;;;;12.02;4.22;;;;;;;26.47;37.19;101006.56;5012905;28;20041;-77
2021/04/07 10:53:31;;;;;;;8.38;2.85;;;;;;;26.38;37.11;100998.00;5010422;28;20498;-76
2021/04/07 10:56:00;;;;;;;10.35;3.78;;;;;;;26.29;37.39;100995.69;5018121;28;20045;-75
2021/04/07 10:58:29;;;;;;;10.90;3.60;;;;;;;26.19;37.39;101006.91;5011422;28;20057;-77
2021/04/07 11:00:57;;;;;;;16.42;4.47;;;;;;;26.24;37.52;101005.84;5011538;28;20124;-75
2021/04/07 11:03:32;;;;;;;13.82;3.58;;;;;;;26.53;37.21;101005.41;4990309;28;20065;-75
2021/04/07 11:06:00;;;;;;;13.25;3.80;;;;;;;26.65;36.38;101002.09;5001136;28;20042;-77
2021/04/07 11:08:38;;;;;;;11.13;4.05;;;;;;;26.79;36.21;100999.63;5021483;28;20571;-77
2021/04/07 11:11:06;;;;;;;11.93;4.13;;;;;;;26.88;35.98;101007.31;5029216;28;20513;-76
2021/04/07 11:13:34;;;;;;;12.43;4.63;;;;;;;26.84;35.92;100999.44;5019902;28;20168;-76
2021/04/07 11:16:12;;;;;;;25.33;13.98;;;;;;;26.91;36.50;100995.50;5031463;28;20041;-76
2021/04/07 11:18:40;;;;;;;15.23;4.95;;;;;;;27.07;36.08;101001.94;5029974;28;20205;-76
2021/04/07 11:21:08;;;;;;;15.50;5.15;;;;;;;27.25;36.21;101001.00;5031412;28;20041;-76
2021/04/07 11:23:36;;;;;;;10.48;3.35;;;;;;;26.96;35.99;100997.03;5031166;28;20037;-75